createdAt,value
2022-08-25T00:01:55.324Z,95779.93
2022-08-25T00:07:31.208Z,95786.22
2022-08-25T00:13:08.825Z,95776.13
2022-08-25T00:18:45.842Z,95771.80
2022-08-25T00:24:38.471Z,95781.42
2022-08-25T00:30:16.878Z,95774.71
2022-08-25T00:35:52.731Z,95768.88
2022-08-25T00:41:27.286Z,95779.43
2022-08-25T00:49:48.004Z,95784.89
2022-08-25T00:55:24.985Z,95782.12
2022-08-25T01:03:36.442Z,95780.55
2022-08-25T01:09:11.064Z,95780.33
2022-08-25T01:14:40.644Z,95783.42
2022-08-25T01:17:34.910Z,95785.20
2022-08-25T01:26:02.038Z,95778.06
2022-08-25T01:31:31.072Z,95775.25
2022-08-25T01:37:13.739Z,95776.41
2022-08-25T01:42:55.790Z,95775.82
2022-08-25T01:45:49.554Z,95778.95
2022-08-25T01:51:25.679Z,95762.27
2022-08-25T01:54:14.678Z,95766.19
2022-08-25T02:02:52.265Z,95768.13
2022-08-25T02:08:27.227Z,95764.53
2022-08-25T02:11:16.240Z,95773.07
2022-08-25T02:16:48.863Z,95774.62
2022-08-25T02:22:23.338Z,95782.64
2022-08-25T02:27:54.780Z,95779.37
2022-08-25T02:33:29.256Z,95778.11
2022-08-25T02:39:16.059Z,95771.92
2022-08-25T02:44:54.154Z,95771.73
2022-08-25T02:50:21.518Z,95771.37
2022-08-25T02:55:58.392Z,95765.91
2022-08-25T03:01:30.917Z,95771.21
2022-08-25T03:04:20.031Z,95772.73
2022-08-25T03:07:08.556Z,95777.66
2022-08-25T03:09:58.627Z,95779.95
2022-08-25T03:12:48.026Z,95775.24
2022-08-25T03:18:18.172Z,95777.84
2022-08-25T03:23:57.043Z,95788.80
2022-08-25T03:29:29.786Z,95787.73
2022-08-25T03:35:02.915Z,95797.65
2022-08-25T03:37:51.817Z,95793.06
2022-08-25T03:43:39.825Z,95785.83
2022-08-25T03:46:30.210Z,95785.50
2022-08-25T03:52:05.465Z,95777.23
2022-08-25T03:57:39.028Z,95783.36
2022-08-25T04:00:27.393Z,95782.34
2022-08-25T04:03:15.943Z,95781.66
2022-08-25T04:08:43.220Z,95772.33
2022-08-25T04:14:16.699Z,95772.98
2022-08-25T04:19:47.887Z,95773.73
2022-08-25T04:25:21.421Z,95772.05
2022-08-25T04:28:10.875Z,95774.58
2022-08-25T04:33:42.566Z,95776.20
2022-08-25T04:39:20.134Z,95772.33
2022-08-25T04:44:57.381Z,95772.64
2022-08-25T04:50:39.727Z,95784.87
2022-08-25T04:53:28.292Z,95774.85
2022-08-25T04:58:58.338Z,95780.78
2022-08-25T05:07:47.568Z,95772.69
2022-08-25T05:10:38.613Z,95773.81
2022-08-25T05:16:13.926Z,95774.33
2022-08-25T05:21:51.350Z,95767.08
2022-08-25T05:24:43.302Z,95772.95
2022-08-25T05:30:21.972Z,95777.41
2022-08-25T05:35:53.072Z,95770.42
2022-08-25T05:38:42.026Z,95773.83
2022-08-25T05:44:21.303Z,95756.44
2022-08-25T05:47:09.617Z,95750.66
2022-08-25T05:49:57.503Z,95744.79
2022-08-25T05:52:47.817Z,95753.84
2022-08-25T05:55:36.963Z,95761.86
2022-08-25T05:58:27.825Z,95751.84
2022-08-25T06:01:43.318Z,95756.27
2022-08-25T06:04:32.815Z,95761.13
2022-08-25T06:07:21.184Z,95754.72
2022-08-25T06:10:12.705Z,95754.73
2022-08-25T06:13:01.268Z,95753.95
2022-08-25T06:18:34.638Z,95749.24
2022-08-25T06:24:15.356Z,95740.59
2022-08-25T06:27:02.773Z,95744.33
2022-08-25T06:32:40.715Z,95754.71
2022-08-25T06:38:17.420Z,95758.69
2022-08-25T06:43:48.885Z,95744.73
2022-08-25T06:49:18.807Z,95743.56
2022-08-25T06:57:35.157Z,95739.80
2022-08-25T07:03:04.885Z,95745.08
2022-08-25T07:08:43.877Z,95735.48
2022-08-25T07:23:15.200Z,95745.98
2022-08-25T07:26:21.535Z,95743.11
2022-08-25T07:31:49.363Z,95739.85
2022-08-25T07:37:47.999Z,95749.20
2022-08-25T07:43:04.751Z,95748.67
2022-08-25T07:45:55.399Z,95750.05
2022-08-25T07:51:32.574Z,95749.72
2022-08-25T07:59:51.830Z,95741.57
2022-08-25T08:02:40.997Z,95740.19
2022-08-25T08:08:19.010Z,95742.56
2022-08-25T08:13:58.030Z,95739.67
2022-08-25T08:16:46.327Z,95742.37
2022-08-25T08:22:20.592Z,95748.33
2022-08-25T08:27:58.821Z,95748.42
2022-08-25T08:33:32.690Z,95751.39
2022-08-25T08:39:02.830Z,95739.74
2022-08-25T08:45:09.742Z,95756.75
2022-08-25T08:51:00.405Z,95753.61
2022-08-25T08:56:43.612Z,95748.33
2022-08-25T09:02:39.141Z,95751.68
2022-08-25T09:05:12.236Z,95756.88
2022-08-25T09:10:46.100Z,95749.44
2022-08-25T09:16:48.438Z,95751.71
2022-08-25T09:20:20.675Z,95752.67
2022-08-25T09:25:58.044Z,95751.00
2022-08-25T09:34:26.034Z,95746.77
2022-08-25T09:37:16.028Z,95755.13
2022-08-25T09:42:57.979Z,95760.50
2022-08-25T09:48:39.063Z,95755.27
2022-08-25T09:51:31.348Z,95753.98
2022-08-25T09:54:25.520Z,95747.50
2022-08-25T10:00:21.609Z,95740.41
2022-08-25T10:03:13.601Z,95740.59
2022-08-25T10:06:13.271Z,95739.55
2022-08-25T10:11:49.497Z,95735.65
2022-08-25T10:17:30.302Z,95724.75
2022-08-25T10:23:14.908Z,95724.82
2022-08-25T10:31:55.328Z,95710.17
2022-08-25T10:37:54.178Z,95715.05
2022-08-25T10:40:46.503Z,95703.37
2022-08-25T10:46:18.883Z,95700.33
2022-08-25T10:49:09.229Z,95693.75
2022-08-25T10:54:47.666Z,95686.19
2022-08-25T11:00:31.763Z,95681.50
2022-08-25T11:06:09.991Z,95671.41
2022-08-25T11:11:46.252Z,95674.97
2022-08-25T11:17:25.919Z,95664.56
2022-08-25T11:20:19.811Z,95671.87
2022-08-25T11:25:53.818Z,95658.98
2022-08-25T11:31:41.527Z,95662.28
2022-08-25T11:37:21.332Z,95657.39
2022-08-25T11:43:25.951Z,95648.07
2022-08-25T11:49:31.518Z,95650.12
2022-08-25T12:02:06.811Z,95638.43
2022-08-25T12:08:23.862Z,95634.01
2022-08-25T12:13:58.205Z,95641.29
2022-08-25T12:26:00.022Z,95631.28
2022-08-25T12:32:39.022Z,95630.25
2022-08-25T12:41:08.960Z,95620.34
2022-08-25T12:46:47.453Z,95619.51
2022-08-25T12:52:27.998Z,95618.98
2022-08-25T12:58:05.167Z,95617.77
2022-08-25T13:04:09.398Z,95610.50
2022-08-25T13:07:06.652Z,95615.02
2022-08-25T13:10:24.129Z,95609.30
2022-08-25T13:16:09.840Z,95613.62
2022-08-25T13:21:46.055Z,95592.89
2022-08-25T13:27:29.471Z,95587.49
2022-08-25T13:30:28.515Z,95591.85
2022-08-25T13:33:23.701Z,95589.98
2022-08-25T13:44:39.775Z,95582.48
2022-08-25T13:50:33.347Z,95573.84
2022-08-25T13:59:06.278Z,95563.80
2022-08-25T14:01:57.362Z,95561.14
2022-08-25T14:07:35.587Z,95557.73
2022-08-25T14:10:36.778Z,95558.05
2022-08-25T14:16:30.720Z,95550.41
2022-08-25T14:22:10.991Z,95553.06
2022-08-25T14:28:07.467Z,95550.13
2022-08-25T14:33:50.158Z,95548.86
2022-08-25T14:39:34.942Z,95547.00
2022-08-25T14:45:17.310Z,95535.50
2022-08-25T14:50:54.107Z,95547.44
2022-08-25T14:56:31.162Z,95542.29
2022-08-25T15:02:12.984Z,95536.52
2022-08-25T15:08:04.958Z,95531.67
2022-08-25T15:13:36.733Z,95527.23
2022-08-25T15:19:15.811Z,95524.44
2022-08-25T15:22:04.174Z,95524.27
2022-08-25T15:27:41.863Z,95512.95
2022-08-25T15:33:19.684Z,95517.27
2022-08-25T15:36:11.187Z,95520.97
2022-08-25T15:41:46.252Z,95519.39
2022-08-25T15:44:36.526Z,95511.58
2022-08-25T15:53:02.632Z,95504.09
2022-08-25T15:55:52.328Z,95502.50
2022-08-25T15:58:49.868Z,95504.52
2022-08-25T16:04:14.273Z,95491.80
2022-08-25T16:15:37.555Z,95485.66
2022-08-25T16:21:18.063Z,95487.91
2022-08-25T16:24:08.085Z,95486.56
2022-08-25T16:29:42.429Z,95486.81
2022-08-25T16:38:07.180Z,95478.59
2022-08-25T16:43:36.480Z,95478.95
2022-08-25T16:49:16.224Z,95469.96
2022-08-25T16:57:39.840Z,95459.70
2022-08-25T17:03:34.073Z,95459.70
2022-08-25T17:09:01.167Z,95456.89
2022-08-25T17:14:36.254Z,95453.09
2022-08-25T17:20:12.657Z,95453.95
2022-08-25T17:25:52.820Z,95454.23
2022-08-25T17:28:42.608Z,95454.81
2022-08-25T17:31:32.043Z,95455.72
2022-08-25T17:37:07.766Z,95458.16
2022-08-25T17:42:42.289Z,95460.32
2022-08-25T17:48:12.769Z,95466.02
2022-08-25T17:53:47.350Z,95464.74
2022-08-25T17:59:21.833Z,95466.84
2022-08-25T18:02:10.889Z,95468.56
2022-08-25T18:08:03.462Z,95471.16
2022-08-25T18:13:37.295Z,95475.59
2022-08-25T18:19:09.682Z,95486.30
2022-08-25T18:21:57.253Z,95485.53
2022-08-25T18:24:47.319Z,95489.83
2022-08-25T18:27:36.993Z,95488.55
2022-08-25T18:33:15.641Z,95488.91
2022-08-25T18:36:04.966Z,95499.02
2022-08-25T18:41:42.357Z,95502.39
2022-08-25T18:47:11.508Z,95510.57
2022-08-25T18:52:46.506Z,95506.61
2022-08-25T18:58:19.818Z,95507.41
2022-08-25T19:03:53.031Z,95511.89
2022-08-25T19:09:25.938Z,95509.40
2022-08-25T19:15:00.575Z,95511.47
2022-08-25T19:20:30.496Z,95526.45
2022-08-25T19:26:13.943Z,95528.61
2022-08-25T19:28:59.655Z,95531.02
2022-08-25T19:31:49.711Z,95530.53
2022-08-25T19:34:42.652Z,95521.09
2022-08-25T19:40:20.323Z,95528.30
2022-08-25T19:43:08.728Z,95529.05
2022-08-25T19:48:42.207Z,95523.13
2022-08-25T19:51:31.663Z,95519.98
2022-08-25T19:57:11.072Z,95519.27
2022-08-25T19:59:59.076Z,95521.66
2022-08-25T20:02:48.609Z,95519.30
2022-08-25T20:08:30.166Z,95526.56
2022-08-25T20:14:05.103Z,95534.91
2022-08-25T20:16:54.717Z,95534.91
2022-08-25T20:19:43.216Z,95530.58
2022-08-25T20:22:34.183Z,95531.42
2022-08-25T20:28:12.588Z,95532.63
2022-08-25T20:31:00.653Z,95542.61
2022-08-25T20:36:41.574Z,95541.01
2022-08-25T20:39:29.733Z,95540.33
2022-08-25T20:42:21.859Z,95538.53
2022-08-25T20:48:01.200Z,95540.83
2022-08-25T20:53:39.220Z,95538.67
2022-08-25T20:59:13.472Z,95547.16
2022-08-25T21:02:05.333Z,95544.53
2022-08-25T21:04:57.032Z,95546.20
2022-08-25T21:07:48.994Z,95547.72
2022-08-25T21:13:43.713Z,95552.39
2022-08-25T21:16:39.427Z,95553.26
2022-08-25T21:19:31.816Z,95548.56
2022-08-25T21:25:08.986Z,95554.28
2022-08-25T21:27:58.907Z,95553.61
2022-08-25T21:33:53.425Z,95556.66
2022-08-25T21:36:44.358Z,95560.53
2022-08-25T21:39:33.653Z,95560.73
2022-08-25T21:45:27.246Z,95566.24
2022-08-25T21:51:07.358Z,95562.42
2022-08-25T21:56:49.172Z,95560.35
2022-08-25T22:02:22.504Z,95562.80
2022-08-25T22:05:13.499Z,95563.55
2022-08-25T22:08:03.368Z,95558.50
2022-08-25T22:10:52.005Z,95565.59
2022-08-25T22:13:43.244Z,95565.22
2022-08-25T22:19:18.132Z,95554.56
2022-08-25T22:24:50.568Z,95557.05
2022-08-25T22:30:29.530Z,95553.70
2022-08-25T22:33:18.136Z,95558.77
2022-08-25T22:36:14.683Z,95556.98
2022-08-25T22:39:04.860Z,95548.94
2022-08-25T22:41:56.122Z,95550.81
2022-08-25T22:44:45.015Z,95549.99
2022-08-25T22:47:34.332Z,95551.00
2022-08-25T22:50:22.857Z,95548.68
2022-08-25T22:53:11.433Z,95547.77
2022-08-25T22:56:02.429Z,95541.87
2022-08-25T23:01:39.623Z,95546.20
2022-08-25T23:07:17.856Z,95538.01
2022-08-25T23:12:56.118Z,95535.59
2022-08-25T23:18:31.730Z,95539.45
2022-08-25T23:21:41.229Z,95539.16
2022-08-25T23:27:15.725Z,95529.59
2022-08-25T23:32:51.971Z,95523.31
2022-08-25T23:38:28.423Z,95523.31
2022-08-25T23:41:18.692Z,95523.77
2022-08-25T23:46:54.102Z,95529.98
2022-08-25T23:52:31.830Z,95527.55
2022-08-25T23:55:19.979Z,95529.92
